createdAt,value
2022-11-05T00:03:28.969Z,6.48
2022-11-05T00:08:49.340Z,6.46
2022-11-05T00:14:13.636Z,6.39
2022-11-05T00:19:16.689Z,6.34
2022-11-05T00:24:36.687Z,6.31
2022-11-05T00:29:38.137Z,6.20
2022-11-05T00:34:39.653Z,6.27
2022-11-05T00:39:41.188Z,6.30
2022-11-05T00:45:01.239Z,6.32
2022-11-05T00:50:02.833Z,6.39
2022-11-05T00:55:04.615Z,6.46
2022-11-05T01:00:06.694Z,6.50
2022-11-05T01:05:08.834Z,6.65
2022-11-05T01:10:10.396Z,6.76
2022-11-05T01:15:11.940Z,6.87
2022-11-05T01:20:13.685Z,6.94
2022-11-05T01:25:15.233Z,6.95
2022-11-05T01:30:16.836Z,6.89
2022-11-05T01:35:18.869Z,6.88
2022-11-05T01:40:22.942Z,6.93
2022-11-05T01:45:28.865Z,6.88
2022-11-05T01:51:01.387Z,6.84
2022-11-05T01:56:13.961Z,6.84
2022-11-05T02:01:16.229Z,6.82
2022-11-05T02:06:17.768Z,6.85
2022-11-05T02:11:19.983Z,6.91
2022-11-05T02:16:55.195Z,6.90
2022-11-05T02:22:18.370Z,6.84
2022-11-05T02:27:55.198Z,6.71
2022-11-05T02:33:21.723Z,6.66
2022-11-05T02:38:52.438Z,6.62
2022-11-05T02:44:02.993Z,6.58
2022-11-05T02:49:32.996Z,6.62
2022-11-05T02:54:57.600Z,6.70
2022-11-05T03:00:08.637Z,6.87
2022-11-05T03:05:10.112Z,6.99
2022-11-05T03:10:22.733Z,7.06
2022-11-05T03:15:30.436Z,7.12
2022-11-05T03:20:34.491Z,7.18
2022-11-05T03:25:45.466Z,7.27
2022-11-05T03:30:50.318Z,7.32
2022-11-05T03:35:58.704Z,7.32
2022-11-05T03:41:04.889Z,7.34
2022-11-05T03:46:11.997Z,7.33
2022-11-05T03:51:24.513Z,7.31
2022-11-05T03:56:48.315Z,7.27
2022-11-05T04:01:50.104Z,7.26
2022-11-05T04:07:10.357Z,7.22
2022-11-05T04:12:30.148Z,7.23
2022-11-05T04:17:31.652Z,7.17
2022-11-05T04:22:53.421Z,7.18
2022-11-05T04:28:00.301Z,7.21
2022-11-05T04:33:13.765Z,7.09
2022-11-05T04:38:18.002Z,7.01
2022-11-05T04:43:19.944Z,6.94
2022-11-05T04:48:21.585Z,6.93
2022-11-05T04:53:23.053Z,6.97
2022-11-05T04:58:24.503Z,6.99
2022-11-05T05:03:25.968Z,7.08
2022-11-05T05:08:27.442Z,7.16
2022-11-05T05:13:28.897Z,7.18
2022-11-05T05:18:30.357Z,7.16
2022-11-05T05:23:31.852Z,7.14
2022-11-05T05:28:33.393Z,7.10
2022-11-05T05:33:34.909Z,7.04
2022-11-05T05:38:36.414Z,6.97
2022-11-05T05:43:37.880Z,6.97
2022-11-05T05:48:39.439Z,6.91
2022-11-05T05:53:40.924Z,6.90
2022-11-05T05:58:42.435Z,6.93
2022-11-05T06:03:43.895Z,6.97
2022-11-05T06:08:45.549Z,6.98
2022-11-05T06:13:46.996Z,6.97
2022-11-05T06:18:48.452Z,7.02
2022-11-05T06:23:50.117Z,7.04
2022-11-05T06:28:51.583Z,7.03
2022-11-05T06:33:53.175Z,7.01
2022-11-05T06:38:54.655Z,7.00
2022-11-05T06:43:56.112Z,6.99
2022-11-05T06:48:57.585Z,7.03
2022-11-05T06:53:59.038Z,7.06
2022-11-05T06:59:00.711Z,7.09
2022-11-05T07:04:02.150Z,7.12
2022-11-05T07:09:04.100Z,7.17
2022-11-05T07:14:05.588Z,7.20
2022-11-05T07:19:07.065Z,7.24
2022-11-05T07:24:08.947Z,7.34
2022-11-05T07:29:10.406Z,7.40
2022-11-05T07:34:11.960Z,7.52
2022-11-05T07:39:13.449Z,7.58
2022-11-05T07:44:14.898Z,7.62
2022-11-05T07:49:16.612Z,7.74
2022-11-05T07:54:18.116Z,7.84
2022-11-05T07:59:19.595Z,7.94
2022-11-05T08:04:21.135Z,8.08
2022-11-05T08:09:22.617Z,8.22
2022-11-05T08:14:24.061Z,8.32
2022-11-05T08:19:25.621Z,8.44
2022-11-05T08:24:27.084Z,8.54
2022-11-05T08:29:28.552Z,8.58
2022-11-05T08:34:30.022Z,8.58
2022-11-05T08:39:31.529Z,8.55
2022-11-05T08:44:32.974Z,8.52
2022-11-05T08:49:34.425Z,8.58
2022-11-05T08:54:36.105Z,8.71
2022-11-05T08:59:37.641Z,8.89
2022-11-05T09:04:39.084Z,9.07
2022-11-05T09:09:40.650Z,9.24
2022-11-05T09:14:42.148Z,9.42
2022-11-05T09:19:43.689Z,9.63
2022-11-05T09:24:45.120Z,9.80
2022-11-05T09:29:46.722Z,10.07
2022-11-05T09:34:49.022Z,10.17
2022-11-05T09:39:50.499Z,10.03
2022-11-05T09:45:08.260Z,9.79
2022-11-05T09:50:25.635Z,9.73
2022-11-05T09:55:32.409Z,9.85
2022-11-05T10:00:34.162Z,9.89
2022-11-05T10:05:38.119Z,10.07
2022-11-05T10:10:47.181Z,10.26
2022-11-05T10:16:02.577Z,10.36
2022-11-05T10:21:05.150Z,10.46
2022-11-05T10:26:11.754Z,10.49
2022-11-05T10:31:17.016Z,10.47
2022-11-05T10:36:28.656Z,10.45
2022-11-05T10:41:35.387Z,10.47
2022-11-05T10:47:08.215Z,10.54
2022-11-05T10:52:42.058Z,10.59
2022-11-05T10:57:43.619Z,10.67
2022-11-05T11:02:52.471Z,10.72
2022-11-05T11:08:23.567Z,10.78
2022-11-05T11:13:28.340Z,10.91
2022-11-05T11:18:40.048Z,11.04
2022-11-05T11:23:52.922Z,11.10
2022-11-05T11:29:00.560Z,11.12
2022-11-05T11:34:07.584Z,11.15
2022-11-05T11:39:16.710Z,11.18
2022-11-05T11:44:26.891Z,11.12
2022-11-05T11:49:42.059Z,11.03
2022-11-05T11:54:43.700Z,10.99
2022-11-05T12:00:07.925Z,10.97
2022-11-05T12:05:17.457Z,10.99
2022-11-05T12:10:23.552Z,11.09
2022-11-05T12:15:41.313Z,11.11
2022-11-05T12:21:04.718Z,11.13
2022-11-05T12:26:40.453Z,11.11
2022-11-05T12:32:23.786Z,10.87
2022-11-05T12:37:48.465Z,10.73
2022-11-05T12:43:12.179Z,10.66
2022-11-05T12:48:46.183Z,10.55
2022-11-05T12:53:56.994Z,10.60
2022-11-05T12:59:10.646Z,10.70
2022-11-05T13:04:24.912Z,10.65
2022-11-05T13:09:31.005Z,10.60
2022-11-05T13:14:41.364Z,10.61
2022-11-05T13:19:45.468Z,10.58
2022-11-05T13:24:55.394Z,10.56
2022-11-05T13:30:02.643Z,10.67
2022-11-05T13:35:08.477Z,10.75
2022-11-05T13:40:13.257Z,10.77
2022-11-05T13:45:36.900Z,10.80
2022-11-05T13:50:59.877Z,10.75
2022-11-05T13:56:28.956Z,10.74
2022-11-05T14:01:56.886Z,10.68
2022-11-05T14:07:31.500Z,10.69
2022-11-05T14:12:37.624Z,10.60
2022-11-05T14:17:57.884Z,10.66
2022-11-05T14:23:17.605Z,10.64
2022-11-05T14:28:34.258Z,10.55
2022-11-05T14:33:39.743Z,10.46
2022-11-05T14:38:50.490Z,10.31
2022-11-05T14:43:58.553Z,10.32
2022-11-05T14:49:09.070Z,10.27
2022-11-05T14:54:24.465Z,10.20
2022-11-05T14:59:28.068Z,10.17
2022-11-05T15:04:32.458Z,10.18
2022-11-05T15:09:40.595Z,10.23
2022-11-05T15:14:51.153Z,10.15
2022-11-05T15:19:53.750Z,10.02
2022-11-05T15:24:56.007Z,9.97
2022-11-05T15:30:03.695Z,9.87
2022-11-05T15:35:23.399Z,9.83
2022-11-05T15:40:27.900Z,9.89
2022-11-05T15:45:29.400Z,9.90
2022-11-05T15:50:30.869Z,9.84
2022-11-05T15:55:32.932Z,9.72
2022-11-05T16:00:36.733Z,9.72
2022-11-05T16:05:43.829Z,9.68
2022-11-05T16:10:50.673Z,9.70
2022-11-05T16:15:56.761Z,9.71
2022-11-05T16:21:06.109Z,9.70
2022-11-05T16:26:55.824Z,9.60
2022-11-05T16:31:52.588Z,9.64
2022-11-05T16:36:55.834Z,9.65
2022-11-05T16:41:57.643Z,9.51
2022-11-05T16:47:00.268Z,9.51
2022-11-05T16:52:01.941Z,9.40
2022-11-05T16:57:05.737Z,9.40
2022-11-05T17:02:11.055Z,9.47
2022-11-05T17:07:12.607Z,9.44
2022-11-05T17:12:14.585Z,9.41
2022-11-05T17:17:16.041Z,9.49
2022-11-05T17:22:17.501Z,9.48
2022-11-05T17:27:18.963Z,9.40
2022-11-05T17:32:20.477Z,9.42
2022-11-05T17:37:23.019Z,9.38
2022-11-05T17:42:24.529Z,9.41
2022-11-05T17:47:26.826Z,9.48
2022-11-05T17:52:28.794Z,9.44
2022-11-05T17:57:30.278Z,9.44
2022-11-05T18:02:33.971Z,9.43
2022-11-05T18:07:35.672Z,9.46
2022-11-05T18:12:37.990Z,9.63
2022-11-05T18:17:39.697Z,9.75
2022-11-05T18:22:41.637Z,9.86
2022-11-05T18:27:43.104Z,9.91
2022-11-05T18:32:45.396Z,9.95
2022-11-05T18:37:46.885Z,9.96
2022-11-05T18:42:48.408Z,9.97
2022-11-05T18:47:49.860Z,9.99
2022-11-05T18:52:51.345Z,10.01
2022-11-05T18:57:52.799Z,9.98
2022-11-05T19:02:54.615Z,9.99
2022-11-05T19:07:56.435Z,9.98
2022-11-05T19:12:57.985Z,9.99
2022-11-05T19:17:59.459Z,9.98
2022-11-05T19:23:00.931Z,10.01
2022-11-05T19:28:02.903Z,10.02
2022-11-05T19:33:04.608Z,10.05
2022-11-05T19:38:06.058Z,10.07
2022-11-05T19:43:08.822Z,10.07
2022-11-05T19:48:13.561Z,10.10
2022-11-05T19:53:19.669Z,10.08
2022-11-05T19:58:21.152Z,10.08
2022-11-05T20:03:22.646Z,10.11
2022-11-05T20:08:24.130Z,10.12
2022-11-05T20:13:25.673Z,10.13
2022-11-05T20:18:27.757Z,10.15
2022-11-05T20:23:31.174Z,10.13
2022-11-05T20:28:34.003Z,10.14
2022-11-05T20:33:35.514Z,10.13
2022-11-05T20:38:36.984Z,10.16
2022-11-05T20:43:41.044Z,10.19
2022-11-05T20:48:44.671Z,10.18
2022-11-05T20:53:46.734Z,10.18
2022-11-05T20:58:48.777Z,10.19
2022-11-05T21:03:50.514Z,10.20
2022-11-05T21:08:52.706Z,10.14
2022-11-05T21:13:54.751Z,10.14
2022-11-05T21:18:56.277Z,10.14
2022-11-05T21:23:57.745Z,10.15
2022-11-05T21:28:59.197Z,10.12
2022-11-05T21:34:00.672Z,10.15
2022-11-05T21:39:03.065Z,10.14
2022-11-05T21:44:04.956Z,10.14
2022-11-05T21:49:06.566Z,10.15
2022-11-05T21:54:28.812Z,10.12
2022-11-05T21:59:48.850Z,10.10
2022-11-05T22:04:52.742Z,10.12
2022-11-05T22:09:54.739Z,10.11
2022-11-05T22:14:56.301Z,10.09
2022-11-05T22:19:58.460Z,10.08
2022-11-05T22:25:00.058Z,10.11
2022-11-05T22:30:01.585Z,10.10
2022-11-05T22:35:03.315Z,10.08
2022-11-05T22:40:05.204Z,10.04
2022-11-05T22:45:07.053Z,10.04
2022-11-05T22:50:08.891Z,10.06
2022-11-05T22:55:10.503Z,10.06
2022-11-05T23:00:18.397Z,10.07
2022-11-05T23:05:19.853Z,10.06
2022-11-05T23:10:40.026Z,10.03
2022-11-05T23:15:59.866Z,10.02
2022-11-05T23:21:23.007Z,10.05
2022-11-05T23:26:43.156Z,10.04
2022-11-05T23:32:03.652Z,10.07
2022-11-05T23:37:24.364Z,10.05
2022-11-05T23:42:44.168Z,10.03
2022-11-05T23:48:04.357Z,10.03
2022-11-05T23:53:05.889Z,10.03
2022-11-05T23:58:08.253Z,10.00
